sensor_id;sensor_type;location;lat;lon;timestamp;pressure;altitude;pressure_sealevel;temperature;humidity
75008;BME280;63554;48.940;12.050;2024-02-26T00:01:27;95812.88;;;3.24;84.30
75008;BME280;63554;48.940;12.050;2024-02-26T00:05:32;95805.94;;;3.16;84.70
75008;BME280;63554;48.940;12.050;2024-02-26T00:09:34;95798.38;;;3.13;84.81
75008;BME280;63554;48.940;12.050;2024-02-26T00:13:38;95794.28;;;3.10;85.17
75008;BME280;63554;48.940;12.050;2024-02-26T00:17:41;95795.75;;;3.06;85.34
75008;BME280;63554;48.940;12.050;2024-02-26T00:21:45;95795.97;;;3.05;85.45
75008;BME280;63554;48.940;12.050;2024-02-26T00:25:48;95787.34;;;3.03;85.21
75008;BME280;63554;48.940;12.050;2024-02-26T00:29:51;95790.63;;;3.05;85.61
75008;BME280;63554;48.940;12.050;2024-02-26T00:33:54;95789.56;;;3.06;86.30
75008;BME280;63554;48.940;12.050;2024-02-26T00:37:58;95793.50;;;3.03;85.71
75008;BME280;63554;48.940;12.050;2024-02-26T00:42:04;95790.63;;;3.05;86.56
75008;BME280;63554;48.940;12.050;2024-02-26T00:46:06;95797.00;;;3.04;86.33
75008;BME280;63554;48.940;12.050;2024-02-26T00:50:10;95786.53;;;3.02;86.72
75008;BME280;63554;48.940;12.050;2024-02-26T00:54:14;95785.94;;;3.00;86.88
75008;BME280;63554;48.940;12.050;2024-02-26T00:58:17;95785.53;;;2.97;87.01
75008;BME280;63554;48.940;12.050;2024-02-26T01:02:20;95785.38;;;2.92;86.53
75008;BME280;63554;48.940;12.050;2024-02-26T01:06:23;95784.16;;;2.88;86.63
75008;BME280;63554;48.940;12.050;2024-02-26T01:10:27;95786.22;;;2.86;86.65
75008;BME280;63554;48.940;12.050;2024-02-26T01:14:30;95789.56;;;2.81;86.72
75008;BME280;63554;48.940;12.050;2024-02-26T01:18:33;95783.03;;;2.77;86.67
75008;BME280;63554;48.940;12.050;2024-02-26T01:22:36;95777.28;;;2.74;87.13
75008;BME280;63554;48.940;12.050;2024-02-26T01:26:41;95778.72;;;2.70;87.20
75008;BME280;63554;48.940;12.050;2024-02-26T01:30:44;95777.53;;;2.66;86.93
75008;BME280;63554;48.940;12.050;2024-02-26T01:34:47;95780.63;;;2.63;86.89
75008;BME280;63554;48.940;12.050;2024-02-26T01:38:49;95778.59;;;2.58;86.68
75008;BME280;63554;48.940;12.050;2024-02-26T01:42:54;95796.31;;;2.52;86.61
75008;BME280;63554;48.940;12.050;2024-02-26T01:46:57;95799.22;;;2.44;86.60
75008;BME280;63554;48.940;12.050;2024-02-26T01:51:00;95801.50;;;2.41;86.45
75008;BME280;63554;48.940;12.050;2024-02-26T01:55:03;95797.19;;;2.40;86.78
75008;BME280;63554;48.940;12.050;2024-02-26T01:59:07;95789.59;;;2.37;86.44
75008;BME280;63554;48.940;12.050;2024-02-26T02:03:11;95786.56;;;2.33;86.90
75008;BME280;63554;48.940;12.050;2024-02-26T02:07:14;95774.47;;;2.31;86.70
75008;BME280;63554;48.940;12.050;2024-02-26T02:11:17;95786.75;;;2.32;86.72
75008;BME280;63554;48.940;12.050;2024-02-26T02:15:21;95774.66;;;2.29;86.52
75008;BME280;63554;48.940;12.050;2024-02-26T02:19:24;95781.66;;;2.24;86.71
75008;BME280;63554;48.940;12.050;2024-02-26T02:23:28;95778.38;;;2.22;86.53
75008;BME280;63554;48.940;12.050;2024-02-26T02:27:31;95770.19;;;2.23;86.80
75008;BME280;63554;48.940;12.050;2024-02-26T02:31:34;95759.50;;;2.23;87.02
75008;BME280;63554;48.940;12.050;2024-02-26T02:35:37;95765.28;;;2.20;87.31
75008;BME280;63554;48.940;12.050;2024-02-26T02:39:41;95762.00;;;2.18;86.83
75008;BME280;63554;48.940;12.050;2024-02-26T02:43:45;95764.66;;;2.18;86.82
75008;BME280;63554;48.940;12.050;2024-02-26T02:47:47;95767.13;;;2.20;87.29
75008;BME280;63554;48.940;12.050;2024-02-26T02:51:51;95766.28;;;2.19;87.42
75008;BME280;63554;48.940;12.050;2024-02-26T02:55:56;95766.72;;;2.16;87.16
75008;BME280;63554;48.940;12.050;2024-02-26T02:59:59;95762.25;;;2.10;87.37
75008;BME280;63554;48.940;12.050;2024-02-26T03:04:01;95763.25;;;2.09;87.61
75008;BME280;63554;48.940;12.050;2024-02-26T03:08:05;95760.41;;;2.04;87.32
75008;BME280;63554;48.940;12.050;2024-02-26T03:12:09;95770.06;;;1.99;87.61
75008;BME280;63554;48.940;12.050;2024-02-26T03:16:12;95765.97;;;1.96;87.60
75008;BME280;63554;48.940;12.050;2024-02-26T03:20:15;95761.69;;;1.95;87.67
75008;BME280;63554;48.940;12.050;2024-02-26T03:24:20;95759.44;;;1.92;87.49
75008;BME280;63554;48.940;12.050;2024-02-26T03:28:25;95748.97;;;1.90;87.57
75008;BME280;63554;48.940;12.050;2024-02-26T03:32:27;95744.03;;;1.87;87.90
75008;BME280;63554;48.940;12.050;2024-02-26T03:36:31;95752.28;;;1.86;87.60
75008;BME280;63554;48.940;12.050;2024-02-26T03:40:33;95759.69;;;1.84;87.74
75008;BME280;63554;48.940;12.050;2024-02-26T03:44:37;95753.09;;;1.80;88.10
75008;BME280;63554;48.940;12.050;2024-02-26T03:48:40;95750.66;;;1.78;87.89
75008;BME280;63554;48.940;12.050;2024-02-26T03:52:43;95747.78;;;1.80;88.03
75008;BME280;63554;48.940;12.050;2024-02-26T03:56:46;95747.56;;;1.81;87.96
75008;BME280;63554;48.940;12.050;2024-02-26T04:00:50;95747.34;;;1.83;88.14
75008;BME280;63554;48.940;12.050;2024-02-26T04:04:53;95743.66;;;1.84;88.03
75008;BME280;63554;48.940;12.050;2024-02-26T04:08:56;95742.84;;;1.83;88.34
75008;BME280;63554;48.940;12.050;2024-02-26T04:12:59;95731.75;;;1.80;88.32
75008;BME280;63554;48.940;12.050;2024-02-26T04:17:03;95724.41;;;1.75;88.21
75008;BME280;63554;48.940;12.050;2024-02-26T04:21:06;95743.72;;;1.71;88.06
75008;BME280;63554;48.940;12.050;2024-02-26T04:25:09;95758.69;;;1.65;88.30
75008;BME280;63554;48.940;12.050;2024-02-26T04:29:12;95762.59;;;1.63;87.96
75008;BME280;63554;48.940;12.050;2024-02-26T04:33:16;95755.63;;;1.62;88.19
75008;BME280;63554;48.940;12.050;2024-02-26T04:37:19;95757.69;;;1.60;88.10
75008;BME280;63554;48.940;12.050;2024-02-26T04:41:22;95760.34;;;1.60;87.99
75008;BME280;63554;48.940;12.050;2024-02-26T04:45:25;95753.41;;;1.59;88.32
75008;BME280;63554;48.940;12.050;2024-02-26T04:49:29;95744.75;;;1.57;88.22
75008;BME280;63554;48.940;12.050;2024-02-26T04:53:32;95750.31;;;1.55;88.20
75008;BME280;63554;48.940;12.050;2024-02-26T04:57:35;95758.91;;;1.57;88.18
75008;BME280;63554;48.940;12.050;2024-02-26T05:01:39;95766.28;;;1.62;88.30
75008;BME280;63554;48.940;12.050;2024-02-26T05:05:44;95771.63;;;1.62;88.05
75008;BME280;63554;48.940;12.050;2024-02-26T05:09:47;95776.94;;;1.62;88.19
75008;BME280;63554;48.940;12.050;2024-02-26T05:13:51;95789.69;;;1.60;88.01
75008;BME280;63554;48.940;12.050;2024-02-26T05:17:54;95788.06;;;1.59;87.96
75008;BME280;63554;48.940;12.050;2024-02-26T05:21:58;95785.59;;;1.57;87.90
75008;BME280;63554;48.940;12.050;2024-02-26T05:26:00;95787.44;;;1.57;87.64
75008;BME280;63554;48.940;12.050;2024-02-26T05:30:04;95790.09;;;1.57;87.66
75008;BME280;63554;48.940;12.050;2024-02-26T05:34:07;95784.75;;;1.57;87.85
75008;BME280;63554;48.940;12.050;2024-02-26T05:38:12;95785.81;;;1.56;87.78
75008;BME280;63554;48.940;12.050;2024-02-26T05:42:14;95775.97;;;1.56;87.88
75008;BME280;63554;48.940;12.050;2024-02-26T05:46:17;95774.09;;;1.57;87.90
75008;BME280;63554;48.940;12.050;2024-02-26T05:50:20;95776.16;;;1.55;87.39
75008;BME280;63554;48.940;12.050;2024-02-26T05:54:24;95777.19;;;1.54;87.59
75008;BME280;63554;48.940;12.050;2024-02-26T05:58:27;95789.47;;;1.55;87.47
75008;BME280;63554;48.940;12.050;2024-02-26T06:02:30;95780.06;;;1.52;87.54
75008;BME280;63554;48.940;12.050;2024-02-26T06:06:33;95774.53;;;1.47;87.59
75008;BME280;63554;48.940;12.050;2024-02-26T06:10:37;95768.00;;;1.43;87.53
75008;BME280;63554;48.940;12.050;2024-02-26T06:14:41;95770.44;;;1.45;87.36
75008;BME280;63554;48.940;12.050;2024-02-26T06:18:44;95775.34;;;1.48;87.56
75008;BME280;63554;48.940;12.050;2024-02-26T06:22:47;95783.34;;;1.48;87.60
75008;BME280;63554;48.940;12.050;2024-02-26T06:26:51;95794.66;;;1.43;87.09
75008;BME280;63554;48.940;12.050;2024-02-26T06:30:54;95799.16;;;1.43;87.39
75008;BME280;63554;48.940;12.050;2024-02-26T06:34:57;95801.59;;;1.44;87.30
75008;BME280;63554;48.940;12.050;2024-02-26T06:39:00;95806.53;;;1.47;87.09
75008;BME280;63554;48.940;12.050;2024-02-26T06:43:04;95820.88;;;1.53;87.37
75008;BME280;63554;48.940;12.050;2024-02-26T06:47:07;95825.59;;;1.51;87.26
75008;BME280;63554;48.940;12.050;2024-02-26T06:51:10;95831.53;;;1.53;87.10
75008;BME280;63554;48.940;12.050;2024-02-26T06:55:13;95839.72;;;1.58;87.28
75008;BME280;63554;48.940;12.050;2024-02-26T06:59:17;95846.91;;;1.64;87.04
75008;BME280;63554;48.940;12.050;2024-02-26T07:03:21;95845.28;;;1.69;86.89
75008;BME280;63554;48.940;12.050;2024-02-26T07:07:25;95850.56;;;1.82;86.91
75008;BME280;63554;48.940;12.050;2024-02-26T07:11:31;95856.91;;;1.95;86.85
75008;BME280;63554;48.940;12.050;2024-02-26T07:15:35;95856.03;;;2.14;86.83
75008;BME280;63554;48.940;12.050;2024-02-26T07:19:38;95862.97;;;2.28;87.17
75008;BME280;63554;48.940;12.050;2024-02-26T07:23:41;95862.09;;;2.40;87.12
75008;BME280;63554;48.940;12.050;2024-02-26T07:27:45;95863.28;;;2.51;86.95
75008;BME280;63554;48.940;12.050;2024-02-26T07:31:49;95858.50;;;2.66;87.00
75008;BME280;63554;48.940;12.050;2024-02-26T07:35:52;95863.13;;;2.84;86.48
75008;BME280;63554;48.940;12.050;2024-02-26T07:39:55;95862.63;;;3.00;86.87
75008;BME280;63554;48.940;12.050;2024-02-26T07:43:58;95853.69;;;3.12;86.64
75008;BME280;63554;48.940;12.050;2024-02-26T07:48:02;95854.19;;;3.28;86.48
75008;BME280;63554;48.940;12.050;2024-02-26T07:52:05;95873.41;;;3.43;85.83
75008;BME280;63554;48.940;12.050;2024-02-26T07:56:09;95869.97;;;3.60;86.14
75008;BME280;63554;48.940;12.050;2024-02-26T08:00:13;95876.59;;;3.83;85.23
75008;BME280;63554;48.940;12.050;2024-02-26T08:04:19;95879.41;;;4.06;85.06
75008;BME280;63554;48.940;12.050;2024-02-26T08:08:22;95875.88;;;4.30;84.57
75008;BME280;63554;48.940;12.050;2024-02-26T08:12:25;95866.13;;;4.54;84.51
75008;BME280;63554;48.940;12.050;2024-02-26T08:16:28;95872.22;;;4.79;84.09
75008;BME280;63554;48.940;12.050;2024-02-26T08:20:35;95866.72;;;5.03;83.69
75008;BME280;63554;48.940;12.050;2024-02-26T08:24:38;95866.44;;;5.23;82.82
75008;BME280;63554;48.940;12.050;2024-02-26T08:28:41;95870.91;;;5.41;81.96
75008;BME280;63554;48.940;12.050;2024-02-26T08:32:44;95856.94;;;5.50;81.52
75008;BME280;63554;48.940;12.050;2024-02-26T08:36:53;95862.91;;;5.64;79.99
75008;BME280;63554;48.940;12.050;2024-02-26T08:40:56;95866.53;;;5.81;78.76
75008;BME280;63554;48.940;12.050;2024-02-26T08:45:00;95867.66;;;6.03;78.09
75008;BME280;63554;48.940;12.050;2024-02-26T08:49:03;95868.09;;;6.12;77.03
75008;BME280;63554;48.940;12.050;2024-02-26T08:53:07;95869.03;;;6.17;75.46
75008;BME280;63554;48.940;12.050;2024-02-26T08:57:10;95881.66;;;6.28;74.62
75008;BME280;63554;48.940;12.050;2024-02-26T09:01:13;95882.44;;;6.41;73.61
75008;BME280;63554;48.940;12.050;2024-02-26T09:05:16;95877.88;;;6.53;73.24
75008;BME280;63554;48.940;12.050;2024-02-26T09:09:20;95879.75;;;6.52;71.97
75008;BME280;63554;48.940;12.050;2024-02-26T09:13:23;95881.03;;;6.50;70.95
75008;BME280;63554;48.940;12.050;2024-02-26T09:17:26;95887.00;;;6.52;70.20
75008;BME280;63554;48.940;12.050;2024-02-26T09:21:29;95881.72;;;6.57;69.47
75008;BME280;63554;48.940;12.050;2024-02-26T09:25:33;95876.47;;;6.62;69.41
75008;BME280;63554;48.940;12.050;2024-02-26T09:29:36;95881.13;;;6.66;68.60
75008;BME280;63554;48.940;12.050;2024-02-26T09:33:39;95879.47;;;6.77;68.42
75008;BME280;63554;48.940;12.050;2024-02-26T09:37:42;95880.72;;;7.14;69.00
75008;BME280;63554;48.940;12.050;2024-02-26T09:41:47;95879.00;;;7.36;68.16
75008;BME280;63554;48.940;12.050;2024-02-26T09:45:52;95890.94;;;7.57;67.49
75008;BME280;63554;48.940;12.050;2024-02-26T09:49:56;95885.25;;;7.70;66.95
75008;BME280;63554;48.940;12.050;2024-02-26T09:53:59;95864.69;;;7.64;65.64
75008;BME280;63554;48.940;12.050;2024-02-26T09:58:06;95861.66;;;7.61;66.46
75008;BME280;63554;48.940;12.050;2024-02-26T10:02:12;95860.78;;;7.72;66.31
75008;BME280;63554;48.940;12.050;2024-02-26T10:06:15;95871.72;;;7.82;65.53
75008;BME280;63554;48.940;12.050;2024-02-26T10:10:19;95870.41;;;7.84;64.76
75008;BME280;63554;48.940;12.050;2024-02-26T10:14:23;95875.53;;;7.86;64.28
75008;BME280;63554;48.940;12.050;2024-02-26T10:18:26;95877.66;;;7.84;64.48
75008;BME280;63554;48.940;12.050;2024-02-26T10:22:34;95885.75;;;7.84;64.56
75008;BME280;63554;48.940;12.050;2024-02-26T10:26:38;95883.47;;;7.92;64.94
75008;BME280;63554;48.940;12.050;2024-02-26T10:30:51;95887.06;;;7.98;65.20
75008;BME280;63554;48.940;12.050;2024-02-26T10:34:55;95886.56;;;8.01;64.71
75008;BME280;63554;48.940;12.050;2024-02-26T10:39:01;95881.34;;;8.11;64.39
75008;BME280;63554;48.940;12.050;2024-02-26T10:43:04;95884.19;;;8.21;64.10
75008;BME280;63554;48.940;12.050;2024-02-26T10:47:08;95894.63;;;8.51;65.73
75008;BME280;63554;48.940;12.050;2024-02-26T10:51:13;95903.56;;;8.95;66.02
75008;BME280;63554;48.940;12.050;2024-02-26T10:55:16;95905.91;;;9.29;65.39
75008;BME280;63554;48.940;12.050;2024-02-26T10:59:22;95896.69;;;9.52;64.29
75008;BME280;63554;48.940;12.050;2024-02-26T11:03:26;95893.56;;;9.65;63.41
75008;BME280;63554;48.940;12.050;2024-02-26T11:07:30;95890.50;;;9.83;62.31
75008;BME280;63554;48.940;12.050;2024-02-26T11:11:33;95888.75;;;10.04;62.24
75008;BME280;63554;48.940;12.050;2024-02-26T11:15:37;95877.44;;;10.07;61.68
75008;BME280;63554;48.940;12.050;2024-02-26T11:19:43;95878.53;;;10.06;60.62
75008;BME280;63554;48.940;12.050;2024-02-26T11:23:47;95880.88;;;9.97;60.93
75008;BME280;63554;48.940;12.050;2024-02-26T11:27:53;95873.78;;;9.91;60.34
75008;BME280;63554;48.940;12.050;2024-02-26T11:31:59;95873.03;;;9.96;60.20
75008;BME280;63554;48.940;12.050;2024-02-26T11:36:07;95875.94;;;9.89;60.64
75008;BME280;63554;48.940;12.050;2024-02-26T11:40:11;95868.94;;;9.88;60.91
75008;BME280;63554;48.940;12.050;2024-02-26T11:44:28;95871.53;;;9.78;59.61
75008;BME280;63554;48.940;12.050;2024-02-26T11:48:32;95869.31;;;9.70;60.40
75008;BME280;63554;48.940;12.050;2024-02-26T11:52:36;95870.31;;;9.64;60.60
75008;BME280;63554;48.940;12.050;2024-02-26T11:56:40;95867.88;;;9.63;60.28
75008;BME280;63554;48.940;12.050;2024-02-26T12:00:43;95861.34;;;9.59;59.64
75008;BME280;63554;48.940;12.050;2024-02-26T12:04:46;95860.88;;;9.67;58.07
75008;BME280;63554;48.940;12.050;2024-02-26T12:08:50;95870.91;;;9.71;57.63
75008;BME280;63554;48.940;12.050;2024-02-26T12:12:54;95877.19;;;9.77;57.90
75008;BME280;63554;48.940;12.050;2024-02-26T12:16:59;95891.47;;;9.72;57.27
75008;BME280;63554;48.940;12.050;2024-02-26T12:21:03;95886.63;;;9.74;57.83
75008;BME280;63554;48.940;12.050;2024-02-26T12:25:09;95881.53;;;9.78;57.22
75008;BME280;63554;48.940;12.050;2024-02-26T12:29:12;95889.88;;;9.76;56.53
75008;BME280;63554;48.940;12.050;2024-02-26T12:33:15;95899.63;;;9.77;56.46
75008;BME280;63554;48.940;12.050;2024-02-26T12:37:18;95899.63;;;9.77;56.74
75008;BME280;63554;48.940;12.050;2024-02-26T12:41:22;95895.31;;;9.81;56.15
75008;BME280;63554;48.940;12.050;2024-02-26T12:45:25;95892.00;;;10.01;56.36
75008;BME280;63554;48.940;12.050;2024-02-26T12:49:30;95908.97;;;10.23;56.54
75008;BME280;63554;48.940;12.050;2024-02-26T12:53:34;95897.81;;;10.51;56.61
75008;BME280;63554;48.940;12.050;2024-02-26T12:57:39;95886.94;;;10.88;56.65
75008;BME280;63554;48.940;12.050;2024-02-26T13:01:45;95879.78;;;11.29;56.43
75008;BME280;63554;48.940;12.050;2024-02-26T13:05:48;95893.94;;;11.51;54.89
75008;BME280;63554;48.940;12.050;2024-02-26T13:09:52;95889.41;;;11.87;54.20
75008;BME280;63554;48.940;12.050;2024-02-26T13:13:56;95880.22;;;12.03;52.50
75008;BME280;63554;48.940;12.050;2024-02-26T13:18:09;95881.28;;;12.17;52.10
75008;BME280;63554;48.940;12.050;2024-02-26T13:22:12;95881.31;;;12.42;50.94
75008;BME280;63554;48.940;12.050;2024-02-26T13:26:15;95890.78;;;12.55;50.63
75008;BME280;63554;48.940;12.050;2024-02-26T13:30:20;95905.13;;;12.76;49.71
75008;BME280;63554;48.940;12.050;2024-02-26T13:34:23;95904.56;;;12.94;49.56
75008;BME280;63554;48.940;12.050;2024-02-26T13:38:27;95903.69;;;13.13;48.63
75008;BME280;63554;48.940;12.050;2024-02-26T13:42:31;95902.59;;;13.20;48.01
75008;BME280;63554;48.940;12.050;2024-02-26T13:46:35;95897.75;;;13.06;48.43
75008;BME280;63554;48.940;12.050;2024-02-26T13:50:38;95898.78;;;13.21;47.57
75008;BME280;63554;48.940;12.050;2024-02-26T13:54:41;95908.81;;;13.20;47.52
75008;BME280;63554;48.940;12.050;2024-02-26T13:58:44;95902.28;;;13.26;46.70
75008;BME280;63554;48.940;12.050;2024-02-26T14:02:48;95886.84;;;13.16;46.55
75008;BME280;63554;48.940;12.050;2024-02-26T14:06:51;95888.19;;;13.24;46.45
75008;BME280;63554;48.940;12.050;2024-02-26T14:10:54;95890.34;;;13.27;46.30
75008;BME280;63554;48.940;12.050;2024-02-26T14:14:57;95889.19;;;13.38;45.50
75008;BME280;63554;48.940;12.050;2024-02-26T14:19:03;95885.97;;;13.31;45.28
75008;BME280;63554;48.940;12.050;2024-02-26T14:23:06;95893.66;;;13.09;44.59
75008;BME280;63554;48.940;12.050;2024-02-26T14:27:11;95901.84;;;12.94;44.93
75008;BME280;63554;48.940;12.050;2024-02-26T14:31:17;95908.38;;;12.83;44.86
75008;BME280;63554;48.940;12.050;2024-02-26T14:35:21;95902.41;;;12.76;44.46
75008;BME280;63554;48.940;12.050;2024-02-26T14:39:24;95904.06;;;12.51;44.60
75008;BME280;63554;48.940;12.050;2024-02-26T14:43:27;95909.50;;;12.56;44.63
75008;BME280;63554;48.940;12.050;2024-02-26T14:47:29;95921.44;;;12.71;44.59
75008;BME280;63554;48.940;12.050;2024-02-26T14:51:34;95921.16;;;12.67;44.51
75008;BME280;63554;48.940;12.050;2024-02-26T14:55:37;95941.00;;;12.52;43.29
75008;BME280;63554;48.940;12.050;2024-02-26T14:59:42;95944.25;;;12.49;43.49
75008;BME280;63554;48.940;12.050;2024-02-26T15:03:45;95946.69;;;12.56;44.74
75008;BME280;63554;48.940;12.050;2024-02-26T15:07:50;95936.13;;;12.29;44.06
75008;BME280;63554;48.940;12.050;2024-02-26T15:11:53;95936.09;;;12.04;43.99
75008;BME280;63554;48.940;12.050;2024-02-26T15:15:56;95941.47;;;11.94;44.30
75008;BME280;63554;48.940;12.050;2024-02-26T15:19:59;95946.38;;;11.92;44.50
75008;BME280;63554;48.940;12.050;2024-02-26T15:24:05;95949.34;;;11.80;43.98
75008;BME280;63554;48.940;12.050;2024-02-26T15:28:09;95950.34;;;11.64;44.68
75008;BME280;63554;48.940;12.050;2024-02-26T15:32:15;95951.94;;;11.55;44.25
75008;BME280;63554;48.940;12.050;2024-02-26T15:36:18;95955.19;;;11.52;44.91
75008;BME280;63554;48.940;12.050;2024-02-26T15:40:22;95964.66;;;11.50;45.43
75008;BME280;63554;48.940;12.050;2024-02-26T15:44:25;95988.53;;;11.53;46.23
75008;BME280;63554;48.940;12.050;2024-02-26T15:48:27;95997.41;;;11.43;47.82
75008;BME280;63554;48.940;12.050;2024-02-26T15:52:30;96000.34;;;11.31;49.89
75008;BME280;63554;48.940;12.050;2024-02-26T15:56:35;96005.19;;;11.24;52.01
75008;BME280;63554;48.940;12.050;2024-02-26T16:00:39;96003.78;;;11.17;53.28
75008;BME280;63554;48.940;12.050;2024-02-26T16:04:43;96010.50;;;11.09;54.75
75008;BME280;63554;48.940;12.050;2024-02-26T16:08:45;96011.53;;;10.98;55.64
75008;BME280;63554;48.940;12.050;2024-02-26T16:12:53;96020.59;;;10.82;55.88
75008;BME280;63554;48.940;12.050;2024-02-26T16:16:59;96030.22;;;10.63;56.00
75008;BME280;63554;48.940;12.050;2024-02-26T16:21:03;96026.56;;;10.47;56.66
75008;BME280;63554;48.940;12.050;2024-02-26T16:25:06;96028.59;;;10.35;57.07
75008;BME280;63554;48.940;12.050;2024-02-26T16:29:10;96037.94;;;10.23;57.13
75008;BME280;63554;48.940;12.050;2024-02-26T16:33:13;96040.47;;;10.07;57.69
75008;BME280;63554;48.940;12.050;2024-02-26T16:37:17;96037.09;;;9.95;57.73
75008;BME280;63554;48.940;12.050;2024-02-26T16:41:19;96044.78;;;9.82;58.69
75008;BME280;63554;48.940;12.050;2024-02-26T16:45:24;96046.19;;;9.63;59.05
75008;BME280;63554;48.940;12.050;2024-02-26T16:49:28;96046.22;;;9.46;59.63
75008;BME280;63554;48.940;12.050;2024-02-26T16:53:31;96051.16;;;9.32;59.81
75008;BME280;63554;48.940;12.050;2024-02-26T16:57:33;96054.97;;;9.15;60.51
75008;BME280;63554;48.940;12.050;2024-02-26T17:01:38;96060.66;;;8.97;61.37
75008;BME280;63554;48.940;12.050;2024-02-26T17:05:41;96058.22;;;8.78;62.39
75008;BME280;63554;48.940;12.050;2024-02-26T17:09:44;96066.88;;;8.64;61.90
75008;BME280;63554;48.940;12.050;2024-02-26T17:13:47;96080.13;;;8.49;62.36
75008;BME280;63554;48.940;12.050;2024-02-26T17:17:51;96069.06;;;8.34;63.79
75008;BME280;63554;48.940;12.050;2024-02-26T17:21:54;96073.09;;;8.19;63.70
75008;BME280;63554;48.940;12.050;2024-02-26T17:25:57;96079.59;;;8.07;64.73
75008;BME280;63554;48.940;12.050;2024-02-26T17:30:01;96084.31;;;8.00;64.13
75008;BME280;63554;48.940;12.050;2024-02-26T17:34:05;96088.00;;;7.82;64.83
75008;BME280;63554;48.940;12.050;2024-02-26T17:38:10;96087.81;;;7.72;65.40
75008;BME280;63554;48.940;12.050;2024-02-26T17:42:13;96099.22;;;7.63;65.56
75008;BME280;63554;48.940;12.050;2024-02-26T17:46:17;96091.72;;;7.53;65.89
75008;BME280;63554;48.940;12.050;2024-02-26T17:50:21;96099.25;;;7.39;66.63
75008;BME280;63554;48.940;12.050;2024-02-26T17:54:25;96105.56;;;7.33;67.01
75008;BME280;63554;48.940;12.050;2024-02-26T17:58:29;96115.66;;;7.26;67.39
75008;BME280;63554;48.940;12.050;2024-02-26T18:02:32;96119.50;;;7.19;67.39
75008;BME280;63554;48.940;12.050;2024-02-26T18:06:36;96123.13;;;7.13;67.12
75008;BME280;63554;48.940;12.050;2024-02-26T18:10:40;96118.09;;;7.05;67.46
75008;BME280;63554;48.940;12.050;2024-02-26T18:14:43;96115.28;;;7.00;67.42
75008;BME280;63554;48.940;12.050;2024-02-26T18:18:46;96124.88;;;6.96;67.32
75008;BME280;63554;48.940;12.050;2024-02-26T18:22:50;96127.09;;;6.87;67.83
75008;BME280;63554;48.940;12.050;2024-02-26T18:26:53;96135.03;;;6.82;67.55
75008;BME280;63554;48.940;12.050;2024-02-26T18:30:56;96138.63;;;6.76;68.00
75008;BME280;63554;48.940;12.050;2024-02-26T18:34:59;96151.38;;;6.69;68.37
75008;BME280;63554;48.940;12.050;2024-02-26T18:39:03;96156.88;;;6.62;67.91
75008;BME280;63554;48.940;12.050;2024-02-26T18:43:06;96157.31;;;6.59;68.30
75008;BME280;63554;48.940;12.050;2024-02-26T18:47:09;96157.41;;;6.53;68.49
75008;BME280;63554;48.940;12.050;2024-02-26T18:51:12;96161.03;;;6.47;68.85
75008;BME280;63554;48.940;12.050;2024-02-26T18:55:16;96174.09;;;6.43;68.85
75008;BME280;63554;48.940;12.050;2024-02-26T18:59:19;96174.34;;;6.42;68.79
75008;BME280;63554;48.940;12.050;2024-02-26T19:03:22;96193.94;;;6.42;69.30
75008;BME280;63554;48.940;12.050;2024-02-26T19:07:25;96198.03;;;6.45;69.09
75008;BME280;63554;48.940;12.050;2024-02-26T19:11:29;96207.19;;;6.44;69.16
75008;BME280;63554;48.940;12.050;2024-02-26T19:15:32;96203.41;;;6.45;69.36
75008;BME280;63554;48.940;12.050;2024-02-26T19:19:35;96221.47;;;6.26;69.46
75008;BME280;63554;48.940;12.050;2024-02-26T19:23:39;96225.75;;;6.15;69.70
75008;BME280;63554;48.940;12.050;2024-02-26T19:27:43;96228.50;;;6.09;70.25
75008;BME280;63554;48.940;12.050;2024-02-26T19:31:46;96230.81;;;6.05;70.39
75008;BME280;63554;48.940;12.050;2024-02-26T19:35:49;96230.88;;;5.99;70.72
75008;BME280;63554;48.940;12.050;2024-02-26T19:39:51;96232.59;;;5.93;71.04
75008;BME280;63554;48.940;12.050;2024-02-26T19:43:57;96228.50;;;5.91;71.06
75008;BME280;63554;48.940;12.050;2024-02-26T19:48:00;96236.19;;;5.87;71.63
75008;BME280;63554;48.940;12.050;2024-02-26T19:52:04;96233.72;;;5.86;71.74
75008;BME280;63554;48.940;12.050;2024-02-26T19:56:07;96226.91;;;5.83;71.50
75008;BME280;63554;48.940;12.050;2024-02-26T20:00:11;96229.06;;;5.75;71.79
75008;BME280;63554;48.940;12.050;2024-02-26T20:04:14;96234.50;;;5.68;72.13
75008;BME280;63554;48.940;12.050;2024-02-26T20:08:17;96237.63;;;5.65;72.31
75008;BME280;63554;48.940;12.050;2024-02-26T20:12:20;96248.19;;;5.60;72.07
75008;BME280;63554;48.940;12.050;2024-02-26T20:16:25;96257.31;;;5.59;72.24
75008;BME280;63554;48.940;12.050;2024-02-26T20:20:27;96260.22;;;5.57;72.92
75008;BME280;63554;48.940;12.050;2024-02-26T20:24:30;96259.63;;;5.55;72.61
75008;BME280;63554;48.940;12.050;2024-02-26T20:28:33;96266.31;;;5.46;72.60
75008;BME280;63554;48.940;12.050;2024-02-26T20:32:38;96262.66;;;5.41;72.76
75008;BME280;63554;48.940;12.050;2024-02-26T20:36:41;96276.09;;;5.34;72.84
75008;BME280;63554;48.940;12.050;2024-02-26T20:40:44;96283.03;;;5.24;73.00
75008;BME280;63554;48.940;12.050;2024-02-26T20:44:47;96274.16;;;5.23;72.84
75008;BME280;63554;48.940;12.050;2024-02-26T20:48:51;96285.09;;;5.22;73.48
75008;BME280;63554;48.940;12.050;2024-02-26T20:52:54;96294.19;;;5.21;73.37
75008;BME280;63554;48.940;12.050;2024-02-26T20:56:57;96308.44;;;5.21;73.61
75008;BME280;63554;48.940;12.050;2024-02-26T21:01:00;96310.28;;;5.21;73.66
75008;BME280;63554;48.940;12.050;2024-02-26T21:05:04;96308.63;;;5.20;73.95
75008;BME280;63554;48.940;12.050;2024-02-26T21:09:08;96316.06;;;5.18;74.21
75008;BME280;63554;48.940;12.050;2024-02-26T21:13:11;96328.25;;;5.14;73.83
75008;BME280;63554;48.940;12.050;2024-02-26T21:17:14;96325.41;;;5.08;74.19
75008;BME280;63554;48.940;12.050;2024-02-26T21:21:18;96328.53;;;5.05;74.54
75008;BME280;63554;48.940;12.050;2024-02-26T21:25:23;96334.34;;;5.02;74.16